createdAt,value
2019-02-04T00:00:29.596Z,45.17
2019-02-04T00:02:58.573Z,45.01
2019-02-04T00:05:26.956Z,44.92
2019-02-04T00:07:55.331Z,44.87
2019-02-04T00:10:23.723Z,43.99
2019-02-04T00:12:52.101Z,44.11
2019-02-04T00:15:20.661Z,44.83
2019-02-04T00:17:49.209Z,45.06
2019-02-04T00:20:17.605Z,44.99
2019-02-04T00:22:45.985Z,45.04
2019-02-04T00:25:14.439Z,45.09
2019-02-04T00:27:42.812Z,45.04
2019-02-04T00:30:20.305Z,45.02
2019-02-04T00:32:48.686Z,44.81
2019-02-04T00:35:17.095Z,44.91
2019-02-04T00:37:45.473Z,44.96
2019-02-04T00:40:17.165Z,45.07
2019-02-04T00:42:45.890Z,44.03
2019-02-04T00:45:14.341Z,44.73
2019-02-04T00:47:42.717Z,44.69
2019-02-04T00:50:13.916Z,44.84
2019-02-04T00:52:42.525Z,45.36
2019-02-04T00:55:12.355Z,45.09
2019-02-04T00:57:41.021Z,45.32
2019-02-04T01:00:24.084Z,44.72
2019-02-04T01:02:52.535Z,44.99
2019-02-04T01:05:21.637Z,44.21
2019-02-04T01:07:50.258Z,44.91
2019-02-04T01:10:29.708Z,44.74
2019-02-04T01:12:58.927Z,45.04
2019-02-04T01:15:27.316Z,44.49
2019-02-04T01:17:56.068Z,44.81
2019-02-04T01:20:29.427Z,45.27
2019-02-04T01:22:59.371Z,44.75
2019-02-04T01:25:27.937Z,44.86
2019-02-04T01:27:56.315Z,45.33
2019-02-04T01:30:25.340Z,44.66
2019-02-04T01:32:53.887Z,45.15
2019-02-04T01:35:22.441Z,45.02
2019-02-04T01:37:50.830Z,45.17
2019-02-04T01:40:21.460Z,45.18
2019-02-04T01:42:50.014Z,44.63
2019-02-04T01:45:18.401Z,45.31
2019-02-04T01:47:46.859Z,45.39
2019-02-04T01:50:19.655Z,45.20
2019-02-04T01:52:48.501Z,44.75
2019-02-04T01:55:16.890Z,44.80
2019-02-04T01:57:47.813Z,45.06
2019-02-04T02:00:22.104Z,44.82
2019-02-04T02:02:50.494Z,44.68
2019-02-04T02:05:18.883Z,44.92
2019-02-04T02:07:47.340Z,45.02
2019-02-04T02:10:18.926Z,45.15
2019-02-04T02:12:47.311Z,45.52
2019-02-04T02:15:15.705Z,45.39
2019-02-04T02:17:44.156Z,43.71
2019-02-04T02:20:15.567Z,45.61
2019-02-04T02:22:44.120Z,44.88
2019-02-04T02:25:12.625Z,44.98
2019-02-04T02:27:41.082Z,44.84
2019-02-04T02:30:12.541Z,44.29
2019-02-04T02:32:41.203Z,44.55
2019-02-04T02:35:11.175Z,44.53
2019-02-04T02:37:39.558Z,44.53
2019-02-04T02:40:11.131Z,44.61
2019-02-04T02:42:39.460Z,44.58
2019-02-04T02:45:09.102Z,45.08
2019-02-04T02:47:38.831Z,45.18
2019-02-04T02:50:11.005Z,45.86
2019-02-04T02:52:39.448Z,45.04
2019-02-04T02:55:14.355Z,45.41
2019-02-04T02:57:42.755Z,45.52
2019-02-04T03:00:14.656Z,45.30
2019-02-04T03:02:43.040Z,45.53
2019-02-04T03:05:13.967Z,45.47
2019-02-04T03:07:42.436Z,45.79
2019-02-04T03:10:14.399Z,45.64
2019-02-04T03:12:42.778Z,45.43
2019-02-04T03:15:12.901Z,45.79
2019-02-04T03:17:51.487Z,45.41
2019-02-04T03:20:13.183Z,45.86
2019-02-04T03:22:41.558Z,45.64
2019-02-04T03:25:12.685Z,45.38
2019-02-04T03:27:41.390Z,45.50
2019-02-04T03:30:12.832Z,45.70
2019-02-04T03:32:41.209Z,44.43
2019-02-04T03:35:09.763Z,45.79
2019-02-04T03:37:38.480Z,45.62
2019-02-04T03:40:10.270Z,45.21
2019-02-04T03:42:38.683Z,44.99
2019-02-04T03:45:09.187Z,44.97
2019-02-04T03:47:38.618Z,44.99
2019-02-04T03:50:12.129Z,44.19
2019-02-04T03:52:40.512Z,44.25
2019-02-04T03:55:11.402Z,44.40
2019-02-04T03:57:40.035Z,44.18
2019-02-04T04:00:11.668Z,44.54
2019-02-04T04:02:40.219Z,44.52
2019-02-04T04:05:08.905Z,44.93
2019-02-04T04:07:37.307Z,44.95
2019-02-04T04:10:07.443Z,44.81
2019-02-04T04:12:35.826Z,45.24
2019-02-04T04:15:05.737Z,44.16
2019-02-04T04:17:34.115Z,44.62
2019-02-04T04:20:02.493Z,44.24
2019-02-04T04:22:30.878Z,44.70
2019-02-04T04:24:59.256Z,44.18
2019-02-04T04:27:27.646Z,44.72
2019-02-04T04:29:56.086Z,42.18
2019-02-04T04:32:24.469Z,41.53
2019-02-04T04:34:52.855Z,44.41
2019-02-04T04:37:21.241Z,43.57
2019-02-04T04:39:49.901Z,44.80
2019-02-04T04:42:18.295Z,43.26
2019-02-04T04:44:46.695Z,41.67
2019-02-04T04:47:15.078Z,42.54
2019-02-04T04:49:43.468Z,43.81
2019-02-04T04:52:11.861Z,44.07
2019-02-04T04:54:40.767Z,42.02
2019-02-04T04:57:09.169Z,45.42
2019-02-04T04:59:37.650Z,44.12
2019-02-04T05:02:06.122Z,44.25
2019-02-04T05:04:34.497Z,43.02
2019-02-04T05:07:02.889Z,44.92
2019-02-04T05:09:31.266Z,45.15
2019-02-04T05:11:59.659Z,42.61
2019-02-04T05:14:28.104Z,43.54
2019-02-04T05:16:56.421Z,44.80
2019-02-04T05:19:24.809Z,44.15
2019-02-04T05:21:53.448Z,44.89
2019-02-04T05:24:21.832Z,44.76
2019-02-04T05:26:50.225Z,43.91
2019-02-04T05:29:18.608Z,43.97
2019-02-04T05:31:47.004Z,43.41
2019-02-04T05:34:15.381Z,45.45
2019-02-04T05:36:43.782Z,43.62
2019-02-04T05:39:12.160Z,45.24
2019-02-04T05:41:42.899Z,44.84
2019-02-04T05:44:11.039Z,46.93
2019-02-04T05:46:39.463Z,46.96
2019-02-04T05:49:07.913Z,47.05
2019-02-04T05:51:36.302Z,46.10
2019-02-04T05:54:05.258Z,46.23
2019-02-04T05:56:33.811Z,45.29
2019-02-04T05:59:02.198Z,45.61
2019-02-04T06:01:30.580Z,45.41
2019-02-04T06:03:59.427Z,44.85
2019-02-04T06:06:27.812Z,46.07
2019-02-04T06:08:56.214Z,45.59
2019-02-04T06:11:25.952Z,45.14
2019-02-04T06:13:54.344Z,46.93
2019-02-04T06:16:22.745Z,44.96
2019-02-04T06:19:00.612Z,46.58
2019-02-04T06:21:21.233Z,45.24
2019-02-04T06:23:49.628Z,45.86
2019-02-04T06:26:18.383Z,47.00
2019-02-04T06:28:46.779Z,45.58
2019-02-04T06:31:15.168Z,44.90
2019-02-04T06:33:43.559Z,43.44
2019-02-04T06:36:11.939Z,42.59
2019-02-04T06:38:40.330Z,42.21
2019-02-04T06:41:08.712Z,45.19
2019-02-04T06:43:37.099Z,43.24
2019-02-04T06:46:05.652Z,42.92
2019-02-04T06:48:34.041Z,43.84
2019-02-04T06:51:02.431Z,43.84
2019-02-04T06:53:30.813Z,43.87
2019-02-04T06:55:59.195Z,41.02
2019-02-04T06:58:27.777Z,40.86
2019-02-04T07:00:56.151Z,42.08
2019-02-04T07:03:24.544Z,41.94
2019-02-04T07:05:52.926Z,39.73
2019-02-04T07:08:21.348Z,39.74
2019-02-04T07:10:49.727Z,39.94
2019-02-04T07:13:18.679Z,36.61
2019-02-04T07:15:47.132Z,41.64
2019-02-04T07:18:15.524Z,43.30
2019-02-04T07:20:43.897Z,40.17
2019-02-04T07:23:12.361Z,45.85
2019-02-04T07:25:40.749Z,40.78
2019-02-04T07:28:09.144Z,42.50
2019-02-04T07:30:37.704Z,41.52
2019-02-04T07:33:06.287Z,38.77
2019-02-04T07:35:34.648Z,41.84
2019-02-04T07:38:03.040Z,41.33
2019-02-04T07:40:33.356Z,42.00
2019-02-04T07:43:01.754Z,43.09
2019-02-04T07:45:30.590Z,41.45
2019-02-04T07:47:59.047Z,41.48
2019-02-04T07:50:27.596Z,42.95
2019-02-04T07:52:55.993Z,40.63
2019-02-04T07:55:24.490Z,41.38
2019-02-04T07:57:52.933Z,41.57
2019-02-04T08:00:24.022Z,41.09
2019-02-04T08:02:52.543Z,40.62
2019-02-04T08:05:20.927Z,38.45
2019-02-04T08:07:49.378Z,38.13
2019-02-04T08:10:17.931Z,41.61
2019-02-04T08:12:46.383Z,40.07
2019-02-04T08:15:29.620Z,41.00
2019-02-04T08:17:59.535Z,42.56
2019-02-04T08:20:27.990Z,39.39
2019-02-04T08:22:56.446Z,40.81
2019-02-04T08:25:25.940Z,42.56
2019-02-04T08:27:55.036Z,41.58
2019-02-04T08:30:38.317Z,40.42
2019-02-04T08:33:06.998Z,40.23
2019-02-04T08:35:35.385Z,43.66
2019-02-04T08:38:04.443Z,39.32
2019-02-04T08:40:33.210Z,41.89
2019-02-04T08:43:01.651Z,41.02
2019-02-04T08:45:30.115Z,43.17
2019-02-04T08:47:58.555Z,41.75
2019-02-04T08:50:29.554Z,40.92
2019-02-04T08:52:58.805Z,42.93
2019-02-04T08:55:27.195Z,45.88
2019-02-04T08:57:56.293Z,42.17
2019-02-04T09:00:26.219Z,44.12
2019-02-04T09:02:54.594Z,44.01
2019-02-04T09:05:24.235Z,45.86
2019-02-04T09:07:52.881Z,44.56
2019-02-04T09:10:26.924Z,43.55
2019-02-04T09:12:55.481Z,45.93
2019-02-04T09:15:24.043Z,44.53
2019-02-04T09:17:52.593Z,45.29
2019-02-04T09:20:21.065Z,44.64
2019-02-04T09:22:49.449Z,44.71
2019-02-04T09:25:20.122Z,43.69
2019-02-04T09:27:48.951Z,44.16
2019-02-04T09:30:20.125Z,43.79
2019-02-04T09:32:48.747Z,44.49
2019-02-04T09:35:18.980Z,45.10
2019-02-04T09:37:47.531Z,44.25
2019-02-04T09:40:27.719Z,44.84
2019-02-04T09:42:56.442Z,44.22
2019-02-04T09:45:27.643Z,44.22
2019-02-04T09:47:55.016Z,43.23
2019-02-04T09:50:26.209Z,44.18
2019-02-04T09:52:54.657Z,44.48
2019-02-04T09:55:31.876Z,42.23
2019-02-04T09:58:00.324Z,45.11
2019-02-04T10:00:31.156Z,43.95
2019-02-04T10:02:59.537Z,42.77
2019-02-04T10:05:27.924Z,45.85
2019-02-04T10:07:56.475Z,45.99
2019-02-04T10:10:27.104Z,43.45
2019-02-04T10:12:55.650Z,43.92
2019-02-04T10:15:26.706Z,43.69
2019-02-04T10:17:55.169Z,45.37
2019-02-04T10:20:33.591Z,46.57
2019-02-04T10:22:53.792Z,46.20
2019-02-04T10:25:28.032Z,45.28
2019-02-04T10:27:56.494Z,44.99
2019-02-04T10:30:25.461Z,44.07
2019-02-04T10:32:53.791Z,40.28
2019-02-04T10:35:22.290Z,45.02
2019-02-04T10:37:52.140Z,45.39
2019-02-04T10:40:23.140Z,46.43
2019-02-04T10:42:51.559Z,46.92
2019-02-04T10:45:20.990Z,46.69
2019-02-04T10:47:50.788Z,47.19
2019-02-04T10:50:45.649Z,44.28
2019-02-04T10:53:07.609Z,45.57
2019-02-04T10:55:36.110Z,46.05
2019-02-04T10:58:06.322Z,43.55
2019-02-04T11:00:36.029Z,46.70
2019-02-04T11:03:05.838Z,46.05
2019-02-04T11:05:36.831Z,45.35
2019-02-04T11:08:06.962Z,46.56
2019-02-04T11:10:36.088Z,47.41
2019-02-04T11:13:07.604Z,46.27
2019-02-04T11:15:36.109Z,46.17
2019-02-04T11:18:05.488Z,46.11
2019-02-04T11:20:35.518Z,45.98
2019-02-04T11:23:04.796Z,45.60
2019-02-04T11:25:33.203Z,46.90
2019-02-04T11:28:01.687Z,41.72
2019-02-04T11:30:42.138Z,46.73
2019-02-04T11:33:10.507Z,46.58
2019-02-04T11:35:39.058Z,46.07
2019-02-04T11:38:07.633Z,45.80
2019-02-04T11:40:40.645Z,45.84
2019-02-04T11:43:10.221Z,45.81
2019-02-04T11:45:39.039Z,46.00
2019-02-04T11:48:10.008Z,45.54
2019-02-04T11:50:38.932Z,45.89
2019-02-04T11:53:07.551Z,45.68
2019-02-04T11:55:35.958Z,45.79
2019-02-04T11:58:07.729Z,46.40
2019-02-04T12:00:36.093Z,46.90
2019-02-04T12:03:07.732Z,47.19
2019-02-04T12:05:36.248Z,47.33
2019-02-04T12:08:04.857Z,47.26
2019-02-04T12:10:42.357Z,46.68
2019-02-04T12:13:11.081Z,46.99
2019-02-04T12:15:39.626Z,45.60
2019-02-04T12:18:08.145Z,45.46
2019-02-04T12:20:39.719Z,47.72
2019-02-04T12:23:06.625Z,47.72
2019-02-04T12:25:35.513Z,47.00
2019-02-04T12:28:04.285Z,47.32
2019-02-04T12:30:40.930Z,47.29
2019-02-04T12:33:11.254Z,47.02
2019-02-04T12:35:39.711Z,46.53
2019-02-04T12:38:08.177Z,47.21
2019-02-04T12:40:36.955Z,46.69
2019-02-04T12:43:05.745Z,48.38
2019-02-04T12:45:39.322Z,50.07
2019-02-04T12:48:07.845Z,50.68
2019-02-04T12:50:36.323Z,50.73
2019-02-04T12:53:05.456Z,50.50
2019-02-04T12:55:34.175Z,50.77
2019-02-04T12:58:02.643Z,50.07
2019-02-04T13:00:32.245Z,50.27
2019-02-04T13:03:00.816Z,48.84
2019-02-04T13:05:44.170Z,50.60
2019-02-04T13:08:13.506Z,50.84
2019-02-04T13:10:42.057Z,51.23
2019-02-04T13:13:12.877Z,51.00
2019-02-04T13:15:41.323Z,51.41
2019-02-04T13:18:10.481Z,51.38
2019-02-04T13:20:39.708Z,50.71
2019-02-04T13:23:08.443Z,50.98
2019-02-04T13:25:37.090Z,50.22
2019-02-04T13:28:08.305Z,50.78
2019-02-04T13:30:36.763Z,50.35
2019-02-04T13:33:05.690Z,50.36
2019-02-04T13:35:34.350Z,50.43
2019-02-04T13:38:02.808Z,50.80
2019-02-04T13:40:31.723Z,52.20
2019-02-04T13:43:00.332Z,52.65
2019-02-04T13:45:29.160Z,52.42
2019-02-04T13:47:57.740Z,52.42
2019-02-04T13:50:26.754Z,52.52
2019-02-04T13:52:55.386Z,52.93
2019-02-04T13:55:32.339Z,53.02
2019-02-04T13:58:00.901Z,53.78
2019-02-04T14:00:29.621Z,52.82
2019-02-04T14:02:59.933Z,53.60
2019-02-04T14:05:31.406Z,52.62
2019-02-04T14:08:00.548Z,52.92
2019-02-04T14:10:34.517Z,52.75
2019-02-04T14:13:02.903Z,52.51
2019-02-04T14:15:31.621Z,52.04
2019-02-04T14:18:00.019Z,51.76
2019-02-04T14:20:28.576Z,51.52
2019-02-04T14:22:56.973Z,51.68
2019-02-04T14:25:25.476Z,51.39
2019-02-04T14:27:53.868Z,50.87
2019-02-04T14:30:25.566Z,49.66
2019-02-04T14:32:54.127Z,50.93
2019-02-04T14:35:22.651Z,51.19
2019-02-04T14:37:51.367Z,50.72
2019-02-04T14:40:19.919Z,50.82
2019-02-04T14:42:51.852Z,49.98
2019-02-04T14:45:29.199Z,50.54
2019-02-04T14:48:04.172Z,49.84
2019-02-04T14:50:36.596Z,49.57
2019-02-04T14:53:26.049Z,49.04
2019-02-04T14:56:00.415Z,49.57
2019-02-04T14:58:34.659Z,48.12
2019-02-04T15:01:30.610Z,48.97
2019-02-04T15:04:14.326Z,46.46
2019-02-04T15:07:05.593Z,48.02
2019-02-04T15:09:49.092Z,47.44
2019-02-04T15:12:40.039Z,47.67
2019-02-04T15:15:23.719Z,48.47
2019-02-04T15:18:03.850Z,45.97
2019-02-04T15:20:49.874Z,44.20
2019-02-04T15:23:24.416Z,48.29
2019-02-04T15:26:14.204Z,47.17
2019-02-04T15:28:51.894Z,46.88
2019-02-04T15:31:40.155Z,48.45
2019-02-04T15:34:20.624Z,48.70
2019-02-04T15:37:01.100Z,47.27
2019-02-04T15:39:35.288Z,48.12
2019-02-04T15:42:12.729Z,47.75
2019-02-04T15:44:50.074Z,48.27
2019-02-04T15:47:30.236Z,45.41
2019-02-04T15:50:19.604Z,47.95
2019-02-04T15:52:47.988Z,43.87
2019-02-04T15:55:17.094Z,47.01
2019-02-04T15:57:45.474Z,47.88
2019-02-04T16:00:15.685Z,48.44
2019-02-04T16:02:44.449Z,47.91
2019-02-04T16:05:13.509Z,48.08
2019-02-04T16:07:42.276Z,46.34
2019-02-04T16:10:13.701Z,45.03
2019-02-04T16:12:42.073Z,47.65
2019-02-04T16:15:12.603Z,45.39
2019-02-04T16:17:40.978Z,46.75
2019-02-04T16:20:17.903Z,47.56
2019-02-04T16:22:57.380Z,43.47
2019-02-04T16:25:16.392Z,47.64
2019-02-04T16:27:44.949Z,47.68
2019-02-04T16:30:18.788Z,47.22
2019-02-04T16:32:47.163Z,45.38
2019-02-04T16:35:18.134Z,46.45
2019-02-04T16:37:47.450Z,46.78
2019-02-04T16:40:20.608Z,46.43
2019-02-04T16:42:48.986Z,47.07
2019-02-04T16:45:20.106Z,46.32
2019-02-04T16:47:48.857Z,47.04
2019-02-04T16:50:19.844Z,45.26
2019-02-04T16:52:48.347Z,47.27
2019-02-04T16:55:16.671Z,48.16
2019-02-04T16:57:46.286Z,50.79
2019-02-04T17:00:26.056Z,51.68
2019-02-04T17:02:54.436Z,52.09
2019-02-04T17:05:24.060Z,55.27
2019-02-04T17:07:52.510Z,53.56
2019-02-04T17:10:23.334Z,53.44
2019-02-04T17:12:51.846Z,54.96
2019-02-04T17:15:20.312Z,53.59
2019-02-04T17:17:48.827Z,54.60
2019-02-04T17:20:28.846Z,53.60
2019-02-04T17:22:57.293Z,53.97
2019-02-04T17:25:25.678Z,51.69
2019-02-04T17:27:54.150Z,52.41
2019-02-04T17:30:24.453Z,53.33
2019-02-04T17:32:53.073Z,51.90
2019-02-04T17:35:21.521Z,52.63
2019-02-04T17:37:49.906Z,51.93
2019-02-04T17:40:20.533Z,53.29
2019-02-04T17:42:49.353Z,51.63
2019-02-04T17:45:18.251Z,47.65
2019-02-04T17:47:48.566Z,52.13
2019-02-04T17:50:18.735Z,52.06
2019-02-04T17:52:47.256Z,52.18
2019-02-04T17:55:17.979Z,50.96
2019-02-04T17:57:46.357Z,51.69
2019-02-04T18:00:34.482Z,51.15
2019-02-04T18:03:02.919Z,51.93
2019-02-04T18:05:31.380Z,51.23
2019-02-04T18:07:59.759Z,51.03
2019-02-04T18:10:28.591Z,51.34
2019-02-04T18:12:57.036Z,50.89
2019-02-04T18:15:25.437Z,50.92
2019-02-04T18:17:53.810Z,50.36
2019-02-04T18:20:22.222Z,50.67
2019-02-04T18:22:50.589Z,50.89
2019-02-04T18:25:20.408Z,49.97
2019-02-04T18:27:48.858Z,50.03
2019-02-04T18:30:23.263Z,50.42
2019-02-04T18:32:51.640Z,50.90
2019-02-04T18:35:20.097Z,50.48
2019-02-04T18:37:48.481Z,50.51
2019-02-04T18:40:19.276Z,50.00
2019-02-04T18:42:47.994Z,49.89
2019-02-04T18:45:22.067Z,48.84
2019-02-04T18:47:50.521Z,47.89
2019-02-04T18:50:20.403Z,49.27
2019-02-04T18:52:49.225Z,49.64
2019-02-04T18:55:23.563Z,43.79
2019-02-04T18:57:51.935Z,49.74
2019-02-04T19:00:22.668Z,50.35
2019-02-04T19:02:51.111Z,48.99
2019-02-04T19:05:19.876Z,50.35
2019-02-04T19:07:48.502Z,48.14
2019-02-04T19:10:22.015Z,50.30
2019-02-04T19:12:50.563Z,48.59
2019-02-04T19:15:27.762Z,50.04
2019-02-04T19:18:01.755Z,50.13
2019-02-04T19:20:30.131Z,50.92
2019-02-04T19:22:58.514Z,50.32
2019-02-04T19:25:26.898Z,49.36
2019-02-04T19:27:55.348Z,49.69
2019-02-04T19:30:29.477Z,50.34
2019-02-04T19:32:58.025Z,48.27
2019-02-04T19:35:26.544Z,49.88
2019-02-04T19:37:54.923Z,48.52
2019-02-04T19:40:23.465Z,49.19
2019-02-04T19:42:51.847Z,49.58
2019-02-04T19:45:22.256Z,46.14
2019-02-04T19:47:50.917Z,49.80
2019-02-04T19:50:33.430Z,49.49
2019-02-04T19:53:01.948Z,49.81
2019-02-04T19:55:30.399Z,49.53
2019-02-04T19:57:58.765Z,49.71
2019-02-04T20:00:27.496Z,49.84
2019-02-04T20:02:55.875Z,47.19
2019-02-04T20:05:33.490Z,48.14
2019-02-04T20:08:01.874Z,48.63
2019-02-04T20:10:33.333Z,47.43
2019-02-04T20:13:02.339Z,47.54
2019-02-04T20:15:32.069Z,46.31
2019-02-04T20:18:03.839Z,46.31
2019-02-04T20:20:32.216Z,44.08
2019-02-04T20:23:00.616Z,47.50
2019-02-04T20:25:33.912Z,47.65
2019-02-04T20:28:04.008Z,48.14
2019-02-04T20:30:45.958Z,47.49
2019-02-04T20:33:11.149Z,44.72
2019-02-04T20:35:39.537Z,47.75
2019-02-04T20:38:08.974Z,48.44
2019-02-04T20:40:37.692Z,47.48
2019-02-04T20:43:07.694Z,47.67
2019-02-04T20:45:36.071Z,45.24
2019-02-04T20:48:06.290Z,48.27
2019-02-04T20:50:37.409Z,48.78
2019-02-04T20:53:06.051Z,47.75
2019-02-04T20:55:34.428Z,47.66
2019-02-04T20:58:02.991Z,47.99
2019-02-04T21:00:32.000Z,48.30
2019-02-04T21:03:01.959Z,46.93
2019-02-04T21:05:30.543Z,48.15
2019-02-04T21:07:58.928Z,46.90
2019-02-04T21:10:28.776Z,47.60
2019-02-04T21:12:57.774Z,47.89
2019-02-04T21:15:26.687Z,48.39
2019-02-04T21:17:55.064Z,47.41
2019-02-04T21:20:26.058Z,46.85
2019-02-04T21:22:54.574Z,48.26
2019-02-04T21:25:22.996Z,47.86
2019-02-04T21:27:51.749Z,47.94
2019-02-04T21:30:26.164Z,49.01
2019-02-04T21:32:54.560Z,48.51
2019-02-04T21:35:23.175Z,47.66
2019-02-04T21:37:51.564Z,47.50
2019-02-04T21:40:20.574Z,47.99
2019-02-04T21:42:49.401Z,47.88
2019-02-04T21:45:20.026Z,48.30
2019-02-04T21:47:48.395Z,47.72
2019-02-04T21:50:25.206Z,47.09
2019-02-04T21:52:54.023Z,47.17
2019-02-04T21:55:23.521Z,47.19
2019-02-04T21:57:52.064Z,47.20
2019-02-04T22:00:25.839Z,46.07
2019-02-04T22:02:54.224Z,46.42
2019-02-04T22:05:27.772Z,46.93
2019-02-04T22:07:56.294Z,47.18
2019-02-04T22:10:26.821Z,46.52
2019-02-04T22:12:55.190Z,47.02
2019-02-04T22:15:23.645Z,46.42
2019-02-04T22:17:52.022Z,47.48
2019-02-04T22:20:20.873Z,46.85
2019-02-04T22:22:49.249Z,46.77
2019-02-04T22:25:20.344Z,46.65
2019-02-04T22:27:48.931Z,46.61
2019-02-04T22:30:29.076Z,46.79
2019-02-04T22:32:57.902Z,46.55
2019-02-04T22:35:26.358Z,46.54
2019-02-04T22:37:54.737Z,46.25
2019-02-04T22:40:30.017Z,46.10
2019-02-04T22:42:58.698Z,46.60
2019-02-04T22:45:27.180Z,46.53
2019-02-04T22:47:55.721Z,45.34
2019-02-04T22:50:48.656Z,46.41
2019-02-04T22:53:17.843Z,45.56
2019-02-04T22:55:46.228Z,46.11
2019-02-04T22:58:14.607Z,46.04
2019-02-04T23:01:07.260Z,46.17
2019-02-04T23:03:35.644Z,45.75
2019-02-04T23:06:04.198Z,45.85
2019-02-04T23:08:32.572Z,45.94
2019-02-04T23:11:00.968Z,45.76
2019-02-04T23:13:29.337Z,45.90
2019-02-04T23:15:57.792Z,45.90
2019-02-04T23:18:26.156Z,45.96
2019-02-04T23:20:54.544Z,45.96
2019-02-04T23:23:22.921Z,44.95
2019-02-04T23:25:51.379Z,44.99
2019-02-04T23:28:20.845Z,44.67
2019-02-04T23:30:49.579Z,45.01
2019-02-04T23:33:18.125Z,45.40
2019-02-04T23:35:46.502Z,45.14
2019-02-04T23:38:14.878Z,44.13
2019-02-04T23:40:43.291Z,44.60
2019-02-04T23:43:11.679Z,45.23
2019-02-04T23:45:40.446Z,45.39
2019-02-04T23:48:08.887Z,45.02
2019-02-04T23:50:37.506Z,44.85
2019-02-04T23:53:06.050Z,44.78
2019-02-04T23:55:34.824Z,44.70
2019-02-04T23:58:03.196Z,44.97
